Time;durP1;ratioP1;P1;durP2;ratioP2;P2;SDS_P1;SDS_P2;PMS_P1;PMS_P2;Temp;Humidity;BMP_temperature;BMP_pressure;BME280_temperature;BME280_humidity;BME280_pressure;Samples;Min_cycle;Max_cycle;Signal;HPM_P1;HPM_P2
2022/05/16 00:02:21;;;;;;;4.00;2.33;;;13.30;98.90;;;;;;6199238;23;20063;-65
2022/05/16 00:04:51;;;;;;;7.93;1.77;;;13.10;98.70;;;;;;6199636;23;20028;-65
2022/05/16 00:07:21;;;;;;;6.85;1.65;;;13.00;98.90;;;;;;6198886;23;20004;-65
2022/05/16 00:09:47;;;;;;;3.13;1.80;;;13.00;99.20;;;;;;6199078;23;20095;-66
2022/05/16 00:12:14;;;;;;;6.78;2.15;;;13.00;99.50;;;;;;6201242;23;19996;-66
2022/05/16 00:14:42;;;;;;;3.72;2.03;;;13.00;99.10;;;;;;6200093;23;20074;-65
2022/05/16 00:17:07;;;;;;;2.10;1.90;;;12.90;99.20;;;;;;6198658;23;20016;-66
2022/05/16 00:19:33;;;;;;;6.80;2.00;;;12.70;99.60;;;;;;6201137;23;20080;-66
2022/05/16 00:21:59;;;;;;;3.10;1.90;;;12.70;99.80;;;;;;6204289;23;20092;-65
2022/05/16 00:24:28;;;;;;;5.78;1.90;;;12.70;99.70;;;;;;6201062;23;20335;-66
2022/05/16 00:26:56;;;;;;;2.65;1.58;;;12.60;99.90;;;;;;6202019;23;20430;-65
2022/05/16 00:29:22;;;;;;;3.13;2.05;;;12.60;99.90;;;;;;6200564;23;20008;-66
2022/05/16 00:31:48;;;;;;;4.07;1.75;;;12.50;99.90;;;;;;6200460;23;20005;-66
2022/05/16 00:34:14;;;;;;;3.42;1.92;;;12.50;99.90;;;;;;6201012;23;20021;-65
2022/05/16 00:36:42;;;;;;;6.28;2.05;;;12.60;99.90;;;;;;6204784;23;20102;-66
2022/05/16 00:39:08;;;;;;;2.00;1.80;;;12.60;99.90;;;;;;6205204;23;20032;-65
2022/05/16 00:41:34;;;;;;;3.97;2.00;;;12.60;99.90;;;;;;6204856;23;20016;-65
2022/05/16 00:44:00;;;;;;;2.40;2.17;;;12.50;99.90;;;;;;6199968;23;20388;-65
2022/05/16 00:46:31;;;;;;;4.35;1.90;;;12.60;99.90;;;;;;6197726;23;20752;-65
2022/05/16 00:48:59;;;;;;;3.67;1.88;;;12.60;99.90;;;;;;6197603;23;20012;-65
2022/05/16 00:51:48;;;;;;;2.55;1.63;;;12.50;99.70;;;;;;6194915;23;20000;-66
2022/05/16 00:54:28;;;;;;;3.03;1.80;;;12.30;99.50;;;;;;6193883;23;20008;-65
2022/05/16 00:56:59;;;;;;;3.00;1.98;;;12.20;99.40;;;;;;6197999;23;20009;-66
2022/05/16 00:59:33;;;;;;;4.68;1.85;;;12.10;99.80;;;;;;6195631;23;20000;-65
2022/05/16 01:04:49;;;;;;;5.18;2.08;;;12.00;99.90;;;;;;6195074;23;20024;-65
2022/05/16 01:07:30;;;;;;;3.28;1.80;;;12.00;99.90;;;;;;6196505;23;20063;-65
2022/05/16 01:09:56;;;;;;;2.50;1.92;;;12.00;99.90;;;;;;6194688;23;20063;-65
2022/05/16 01:12:34;;;;;;;4.25;2.35;;;12.00;99.90;;;;;;6196311;23;20008;-65
2022/05/16 01:15:01;;;;;;;3.17;1.88;;;12.20;99.90;;;;;;6195166;23;20036;-65
2022/05/16 01:17:27;;;;;;;3.78;1.77;;;12.30;99.90;;;;;;6196783;23;20004;-65
2022/05/16 01:19:53;;;;;;;2.60;2.08;;;12.40;99.90;;;;;;6192642;23;20383;-65
2022/05/16 01:22:36;;;;;;;1.98;1.75;;;12.40;99.90;;;;;;6195168;23;20384;-65
2022/05/16 01:25:12;;;;;;;3.70;2.00;;;12.20;99.60;;;;;;6198261;23;20012;-65
2022/05/16 01:27:55;;;;;;;2.45;1.63;;;11.80;99.90;;;;;;6193174;23;20246;-65
2022/05/16 01:30:29;;;;;;;3.30;1.58;;;11.70;99.90;;;;;;6193560;23;20123;-65
2022/05/16 01:32:55;;;;;;;4.25;2.00;;;11.80;99.90;;;;;;6196098;23;20019;-65
2022/05/16 01:35:23;;;;;;;4.35;1.75;;;11.80;99.90;;;;;;6196603;23;20024;-65
2022/05/16 01:40:34;;;;;;;2.47;2.00;;;11.80;99.90;;;;;;6193198;23;20075;-65
2022/05/16 01:43:00;;;;;;;2.85;1.85;;;11.90;99.90;;;;;;6194904;23;20012;-65
2022/05/16 01:45:26;;;;;;;1.80;1.55;;;11.90;99.90;;;;;;6195604;23;20015;-65
2022/05/16 01:47:51;;;;;;;2.33;1.77;;;11.90;99.90;;;;;;6198348;23;20004;-65
2022/05/16 01:50:17;;;;;;;2.55;2.00;;;11.70;99.90;;;;;;6168942;23;20547;-65
2022/05/16 01:52:43;;;;;;;1.98;1.77;;;11.40;99.90;;;;;;6196211;23;20083;-65
2022/05/16 01:55:09;;;;;;;2.63;1.95;;;11.30;99.90;;;;;;6197146;23;20086;-65
2022/05/16 01:57:34;;;;;;;3.47;1.83;;;11.30;99.90;;;;;;6195734;23;20320;-65
2022/05/16 02:00:01;;;;;;;3.60;1.80;;;11.30;99.90;;;;;;6165143;23;20008;-66
2022/05/16 02:02:27;;;;;;;6.50;1.80;;;11.30;99.90;;;;;;6193721;23;20047;-65
2022/05/16 02:04:53;;;;;;;2.38;1.83;;;11.30;99.90;;;;;;6194130;23;20336;-65
2022/05/16 02:07:18;;;;;;;5.90;2.22;;;11.30;99.90;;;;;;6193116;23;20015;-65
2022/05/16 02:09:45;;;;;;;3.85;1.83;;;11.30;99.90;;;;;;6194994;23;20465;-65
2022/05/16 02:12:11;;;;;;;3.42;2.20;;;11.30;99.90;;;;;;6168238;23;20088;-65
2022/05/16 02:14:36;;;;;;;2.38;2.17;;;11.30;99.90;;;;;;6193299;23;20079;-70
2022/05/16 02:17:03;;;;;;;3.88;2.20;;;11.40;99.90;;;;;;6144248;23;20020;-70
2022/05/16 02:19:28;;;;;;;3.85;2.17;;;11.40;99.90;;;;;;6192386;23;20068;-70
2022/05/16 02:24:38;;;;;;;3.33;1.80;;;11.40;99.90;;;;;;6191665;23;20725;-70
2022/05/16 02:27:04;;;;;;;3.17;1.70;;;11.40;99.90;;;;;;6193748;23;20004;-70
2022/05/16 02:29:30;;;;;;;4.00;1.90;;;11.30;99.90;;;;;;6194954;23;20019;-70
2022/05/16 02:31:55;;;;;;;2.45;1.65;;;11.20;99.90;;;;;;6195430;23;20005;-70
2022/05/16 02:34:21;;;;;;;3.22;2.42;;;11.20;99.90;;;;;;6166134;23;20382;-70
2022/05/16 02:36:47;;;;;;;3.40;2.10;;;11.30;99.90;;;;;;6191277;23;20021;-70
2022/05/16 02:39:15;;;;;;;4.40;2.30;;;11.30;99.90;;;;;;6194109;23;20076;-70
2022/05/16 02:41:42;;;;;;;2.55;1.70;;;11.30;99.90;;;;;;6192313;23;20267;-70
2022/05/16 02:44:08;;;;;;;3.97;1.92;;;11.30;99.90;;;;;;6191551;23;20711;-70
2022/05/16 02:46:34;;;;;;;3.75;1.85;;;11.20;99.90;;;;;;6190722;23;20013;-70
2022/05/16 02:49:00;;;;;;;2.15;1.70;;;11.10;99.90;;;;;;6191442;23;20009;-70
2022/05/16 02:51:25;;;;;;;3.08;1.67;;;11.00;99.90;;;;;;6195252;23;20174;-70
2022/05/16 02:53:51;;;;;;;2.47;2.13;;;10.90;99.90;;;;;;6194746;23;20078;-70
2022/05/16 02:56:17;;;;;;;3.38;3.08;;;10.90;99.90;;;;;;6194611;23;20187;-70
2022/05/16 02:58:43;;;;;;;4.00;2.80;;;10.90;99.90;;;;;;6191843;23;20043;-70
2022/05/16 03:01:12;;;;;;;9.85;2.08;;;10.90;99.90;;;;;;6191179;23;20009;-70
2022/05/16 03:03:39;;;;;;;4.68;1.90;;;10.90;99.90;;;;;;6196805;23;20069;-70
2022/05/16 03:06:06;;;;;;;2.20;2.00;;;10.70;99.90;;;;;;6168046;23;20878;-70
2022/05/16 03:08:32;;;;;;;2.65;1.80;;;10.70;99.90;;;;;;6193275;23;20016;-70
2022/05/16 03:10:58;;;;;;;1.88;1.77;;;10.60;99.90;;;;;;6194573;23;20013;-70
2022/05/16 03:13:24;;;;;;;2.15;1.88;;;10.70;99.90;;;;;;6197663;23;20733;-70
2022/05/16 03:15:50;;;;;;;2.97;1.80;;;10.70;99.90;;;;;;6197554;23;20028;-70
2022/05/16 03:18:17;;;;;;;3.70;2.20;;;10.70;99.90;;;;;;6196251;23;19997;-70
2022/05/16 03:20:43;;;;;;;2.78;2.15;;;10.80;99.90;;;;;;6196121;23;20030;-70
2022/05/16 03:23:09;;;;;;;2.90;1.80;;;10.90;99.90;;;;;;6194936;23;20020;-70
2022/05/16 03:25:35;;;;;;;3.60;2.03;;;11.00;99.90;;;;;;6195745;23;20013;-70
2022/05/16 03:28:01;;;;;;;10.57;2.72;;;11.00;99.90;;;;;;6195041;23;20012;-70
2022/05/16 03:30:28;;;;;;;5.10;2.20;;;10.90;99.90;;;;;;6195404;23;20777;-70
2022/05/16 03:32:54;;;;;;;7.72;2.38;;;11.00;99.90;;;;;;6197501;23;20087;-70
2022/05/16 03:35:20;;;;;;;1.77;1.60;;;10.90;99.90;;;;;;6194987;23;20021;-70
2022/05/16 03:37:46;;;;;;;2.70;1.70;;;10.90;99.90;;;;;;6198499;23;20013;-70
2022/05/16 03:42:56;;;;;;;2.05;1.85;;;10.70;99.90;;;;;;6192763;23;20028;-69
2022/05/16 03:45:22;;;;;;;3.30;1.98;;;10.70;99.90;;;;;;6196203;23;20012;-70
2022/05/16 03:47:47;;;;;;;9.25;1.98;;;10.80;99.90;;;;;;6196537;23;20501;-70
2022/05/16 03:50:15;;;;;;;2.97;2.10;;;10.80;99.90;;;;;;6195357;23;20363;-70
2022/05/16 03:52:41;;;;;;;2.20;1.90;;;10.80;99.90;;;;;;6193970;23;20005;-71
2022/05/16 03:55:12;;;;;;;2.13;1.92;;;10.80;99.90;;;;;;6191602;23;20009;-70
2022/05/16 03:57:39;;;;;;;2.87;2.23;;;10.90;99.90;;;;;;6194772;23;20928;-70
2022/05/16 04:00:09;;;;;;;4.90;2.10;;;11.10;99.90;;;;;;6194122;23;20241;-71
2022/05/16 04:02:36;;;;;;;3.35;2.58;;;11.30;99.90;;;;;;6189727;23;20024;-71
2022/05/16 04:05:02;;;;;;;1.67;1.50;;;11.40;99.90;;;;;;6196073;23;20363;-70
2022/05/16 04:07:28;;;;;;;2.97;2.42;;;11.50;99.90;;;;;;6197405;23;20083;-71
2022/05/16 04:09:54;;;;;;;3.30;2.15;;;11.50;99.90;;;;;;6117129;23;20096;-71
2022/05/16 04:12:20;;;;;;;2.67;2.40;;;11.50;99.90;;;;;;6190507;23;20013;-70
2022/05/16 04:14:49;;;;;;;7.00;2.70;;;11.50;99.90;;;;;;6197927;23;20032;-72
2022/05/16 04:17:15;;;;;;;3.60;3.30;;;11.60;99.90;;;;;;6201554;23;20028;-71
2022/05/16 04:19:41;;;;;;;4.28;2.42;;;11.60;99.90;;;;;;6199841;23;20009;-71
2022/05/16 04:22:08;;;;;;;12.25;3.08;;;11.60;99.90;;;;;;6200106;23;20518;-70
2022/05/16 04:24:34;;;;;;;3.63;2.58;;;11.70;99.90;;;;;;6171612;23;20021;-70
2022/05/16 04:27:01;;;;;;;4.85;2.47;;;11.90;99.90;;;;;;6199026;23;20369;-71
2022/05/16 04:29:27;;;;;;;4.75;3.03;;;12.00;99.90;;;;;;6201255;23;20303;-70
2022/05/16 04:31:53;;;;;;;5.35;2.72;;;12.20;99.90;;;;;;6170992;23;20008;-71
2022/05/16 04:34:19;;;;;;;4.30;3.00;;;12.30;99.90;;;;;;6200931;23;20144;-69
2022/05/16 04:36:45;;;;;;;6.32;2.63;;;12.50;99.90;;;;;;6200042;23;20174;-69
2022/05/16 04:39:11;;;;;;;4.53;3.05;;;12.60;99.90;;;;;;6202625;23;20015;-69
2022/05/16 04:44:21;;;;;;;5.03;2.75;;;13.00;99.90;;;;;;6201424;23;20296;-70
2022/05/16 04:46:48;;;;;;;3.10;2.80;;;13.10;99.90;;;;;;6174362;23;20462;-70
2022/05/16 04:49:13;;;;;;;8.00;3.30;;;13.20;99.90;;;;;;6198937;23;20004;-67
2022/05/16 04:51:40;;;;;;;8.43;3.05;;;13.30;99.90;;;;;;6199321;23;20386;-68
2022/05/16 04:54:05;;;;;;;6.95;4.15;;;13.50;99.90;;;;;;6200859;23;20897;-69
2022/05/16 04:56:32;;;;;;;5.53;3.10;;;13.50;99.90;;;;;;6199932;23;20044;-69
2022/05/16 04:58:57;;;;;;;5.53;3.13;;;13.60;99.90;;;;;;6198828;23;20043;-68
2022/05/16 05:01:24;;;;;;;4.70;3.08;;;13.70;99.90;;;;;;6197656;23;20004;-68
2022/05/16 05:03:50;;;;;;;5.78;3.22;;;13.90;99.90;;;;;;6172292;23;20434;-69
2022/05/16 05:06:17;;;;;;;6.60;2.63;;;14.10;99.90;;;;;;6201925;23;20012;-69
2022/05/16 05:08:44;;;;;;;8.65;3.78;;;14.40;99.90;;;;;;6200844;23;20011;-67
2022/05/16 05:16:38;;;;;;;8.30;3.65;;;14.90;99.90;;;;;;6202282;23;20094;-68
2022/05/16 05:19:04;;;;;;;4.20;3.15;;;15.10;99.90;;;;;;6200379;23;20008;-68
2022/05/16 05:21:30;;;;;;;4.68;2.83;;;15.20;99.90;;;;;;6196086;23;20062;-67
2022/05/16 05:23:56;;;;;;;8.27;3.00;;;15.40;99.90;;;;;;6201254;23;20078;-68
2022/05/16 05:26:22;;;;;;;5.32;3.05;;;15.50;99.90;;;;;;6202180;23;20016;-68
2022/05/16 05:28:48;;;;;;;6.47;3.53;;;15.70;99.90;;;;;;6201120;23;20419;-68
2022/05/16 05:31:18;;;;;;;4.65;2.50;;;15.90;99.90;;;;;;6198324;23;20005;-67
2022/05/16 05:33:44;;;;;;;5.82;2.60;;;16.10;99.70;;;;;;6203403;23;20005;-74
2022/05/16 05:36:10;;;;;;;7.10;2.80;;;16.30;99.40;;;;;;6203275;23;20044;-75
2022/05/16 05:38:37;;;;;;;4.03;2.88;;;16.40;99.20;;;;;;6203104;23;20016;-75
2022/05/16 05:41:04;;;;;;;5.07;3.20;;;16.50;99.10;;;;;;6202066;23;20008;-75
2022/05/16 05:43:30;;;;;;;4.68;3.60;;;16.60;98.70;;;;;;6200820;23;20012;-73
2022/05/16 05:45:56;;;;;;;8.35;3.05;;;16.70;98.90;;;;;;6203154;23;20015;-74
2022/05/16 05:48:22;;;;;;;9.55;3.40;;;16.80;98.70;;;;;;6200956;23;20013;-73
2022/05/16 05:50:47;;;;;;;6.78;2.92;;;17.00;98.00;;;;;;6202339;23;20071;-74
2022/05/16 05:53:13;;;;;;;6.00;2.83;;;17.00;97.40;;;;;;6195401;23;20008;-71
2022/05/16 05:55:40;;;;;;;5.47;2.53;;;17.00;97.60;;;;;;6194801;23;20024;-73
2022/05/16 05:58:06;;;;;;;6.60;2.75;;;17.20;97.70;;;;;;6199248;23;20454;-74
2022/05/16 06:00:31;;;;;;;7.45;2.80;;;17.30;97.00;;;;;;6199363;23;20063;-73
2022/05/16 06:03:00;;;;;;;9.73;2.50;;;17.30;96.90;;;;;;6150739;23;20004;-73
2022/05/16 06:05:27;;;;;;;3.13;2.20;;;17.50;96.70;;;;;;6203843;23;20004;-73
2022/05/16 06:07:53;;;;;;;4.80;3.00;;;17.60;96.60;;;;;;6202596;23;20009;-73
2022/05/16 06:10:18;;;;;;;5.20;2.55;;;17.70;95.90;;;;;;6202355;23;20055;-73
2022/05/16 06:12:44;;;;;;;5.07;2.13;;;17.70;95.80;;;;;;6197410;23;20009;-73
2022/05/16 06:15:11;;;;;;;4.15;2.30;;;17.80;95.70;;;;;;6201632;23;20020;-74
2022/05/16 06:17:38;;;;;;;5.10;2.42;;;17.90;95.00;;;;;;6204924;23;20012;-74
2022/05/16 06:20:08;;;;;;;6.03;2.35;;;18.00;95.10;;;;;;6204320;23;20088;-73
2022/05/16 06:22:38;;;;;;;4.05;2.35;;;18.10;95.70;;;;;;6203796;23;20381;-75
2022/05/16 06:27:49;;;;;;;3.38;2.17;;;18.30;94.40;;;;;;6205407;23;20385;-74
2022/05/16 06:30:19;;;;;;;8.23;2.47;;;18.30;93.70;;;;;;6204206;23;20012;-74
2022/05/16 06:32:47;;;;;;;6.78;2.78;;;18.40;92.50;;;;;;6204066;23;20000;-74
2022/05/16 06:35:14;;;;;;;4.97;2.20;;;18.40;93.10;;;;;;6203658;23;20012;-74
2022/05/16 06:37:39;;;;;;;5.60;2.00;;;18.40;92.90;;;;;;6203266;23;20040;-74
2022/05/16 06:40:07;;;;;;;6.65;2.40;;;18.50;93.30;;;;;;6199419;23;20745;-74
2022/05/16 06:42:33;;;;;;;3.38;2.33;;;18.60;92.40;;;;;;6202148;23;20008;-74
2022/05/16 06:44:59;;;;;;;5.03;2.00;;;18.70;92.60;;;;;;6177706;23;20004;-74
2022/05/16 06:47:25;;;;;;;4.13;2.17;;;18.80;92.60;;;;;;6201559;23;20460;-73
2022/05/16 06:49:51;;;;;;;6.35;2.10;;;18.90;91.90;;;;;;6205631;23;20071;-73
2022/05/16 06:52:17;;;;;;;5.93;2.33;;;19.00;92.00;;;;;;6203273;23;20005;-73
2022/05/16 06:54:44;;;;;;;8.07;2.40;;;19.00;91.50;;;;;;6203171;23;20005;-72
2022/05/16 06:57:10;;;;;;;5.75;2.15;;;19.20;91.60;;;;;;6199191;23;20027;-73
2022/05/16 06:59:36;;;;;;;3.05;1.90;;;19.20;91.20;;;;;;6201781;23;20000;-73
2022/05/16 07:02:03;;;;;;;4.20;2.50;;;19.40;91.70;;;;;;6199184;23;20020;-73
2022/05/16 07:04:28;;;;;;;2.92;2.08;;;19.40;91.00;;;;;;6197253;23;20009;-73
2022/05/16 07:06:54;;;;;;;5.55;2.22;;;19.40;91.00;;;;;;6198038;23;20004;-73
2022/05/16 07:09:19;;;;;;;3.65;1.92;;;19.60;90.90;;;;;;6198857;23;20015;-74
2022/05/16 07:11:45;;;;;;;6.60;2.20;;;19.70;88.60;;;;;;6173558;23;20136;-73
2022/05/16 07:14:11;;;;;;;8.80;2.47;;;19.70;88.10;;;;;;6199106;23;20009;-73
2022/05/16 07:16:38;;;;;;;9.10;2.17;;;19.80;89.20;;;;;;6171634;23;20027;-74
2022/05/16 07:19:04;;;;;;;5.05;1.90;;;20.00;87.10;;;;;;6201298;23;20021;-73
2022/05/16 07:21:30;;;;;;;7.35;2.13;;;20.10;85.60;;;;;;6200369;23;20015;-73
2022/05/16 07:23:56;;;;;;;6.85;1.77;;;20.00;84.10;;;;;;6200593;23;20116;-73
2022/05/16 07:29:06;;;;;;;3.17;1.98;;;20.10;83.20;;;;;;6202349;23;20023;-74
2022/05/16 07:31:32;;;;;;;5.22;2.10;;;20.30;83.00;;;;;;6169761;23;20016;-73
2022/05/16 07:33:58;;;;;;;6.32;2.10;;;20.30;82.20;;;;;;6200612;23;20261;-73
2022/05/16 07:36:24;;;;;;;7.35;2.10;;;20.30;83.50;;;;;;6200109;23;20095;-74
2022/05/16 07:38:50;;;;;;;5.93;2.47;;;20.40;84.90;;;;;;6203529;23;20092;-74
2022/05/16 07:41:16;;;;;;;5.75;2.50;;;20.50;82.70;;;;;;6204883;23;20008;-73
2022/05/16 07:43:42;;;;;;;4.82;2.17;;;20.60;84.10;;;;;;6202806;23;20011;-74
2022/05/16 07:46:08;;;;;;;3.67;2.10;;;20.70;84.50;;;;;;6205548;23;20036;-74
2022/05/16 07:48:34;;;;;;;3.33;2.10;;;20.90;82.00;;;;;;6205733;23;20020;-74
2022/05/16 07:51:00;;;;;;;4.70;2.40;;;21.00;81.20;;;;;;6203186;23;20108;-74
2022/05/16 07:53:26;;;;;;;4.88;2.17;;;21.00;81.90;;;;;;6200062;23;20018;-74
2022/05/16 07:55:54;;;;;;;3.15;2.13;;;21.00;82.40;;;;;;6199921;23;20017;-74
2022/05/16 07:58:21;;;;;;;6.00;2.20;;;21.00;82.10;;;;;;6200834;23;20012;-74
2022/05/16 08:00:50;;;;;;;5.22;2.30;;;21.00;82.30;;;;;;6200144;23;20161;-74
2022/05/16 08:03:19;;;;;;;5.55;1.98;;;21.10;81.90;;;;;;6200455;23;20091;-73
2022/05/16 08:05:45;;;;;;;4.72;2.05;;;21.10;81.60;;;;;;6201830;23;20198;-74
2022/05/16 08:10:57;;;;;;;7.25;2.25;;;21.40;81.10;;;;;;6200327;23;20043;-74
2022/05/16 08:13:24;;;;;;;4.28;2.10;;;21.60;80.00;;;;;;6201455;23;20000;-73
2022/05/16 08:15:49;;;;;;;3.42;1.95;;;21.80;81.40;;;;;;6201179;23;20869;-74
2022/05/16 08:18:15;;;;;;;7.15;2.25;;;21.90;81.30;;;;;;6201491;23;20016;-74
2022/05/16 08:20:43;;;;;;;4.85;1.90;;;22.00;79.70;;;;;;6205227;23;20005;-75
2022/05/16 08:23:12;;;;;;;5.20;1.92;;;22.00;78.00;;;;;;6204882;23;20121;-74
2022/05/16 08:25:38;;;;;;;7.05;2.17;;;21.90;79.20;;;;;;6200214;23;20028;-74
2022/05/16 08:28:04;;;;;;;3.97;2.05;;;21.80;80.20;;;;;;6202347;23;20008;-75
2022/05/16 08:30:29;;;;;;;3.78;2.20;;;21.80;80.30;;;;;;6204256;23;20012;-74
2022/05/16 08:33:01;;;;;;;3.42;1.55;;;21.70;79.50;;;;;;6204505;23;20070;-74
2022/05/16 08:35:27;;;;;;;2.85;1.98;;;21.60;79.80;;;;;;6203797;23;20001;-73
2022/05/16 08:40:46;;;;;;;4.65;1.70;;;21.80;75.30;;;;;;6205565;23;20027;-74
2022/05/16 08:43:16;;;;;;;4.32;1.75;;;22.00;72.40;;;;;;6206967;23;20015;-73
2022/05/16 08:45:51;;;;;;;3.72;1.90;;;22.10;72.10;;;;;;6205250;23;20083;-75
2022/05/16 08:48:30;;;;;;;5.47;1.85;;;22.10;69.80;;;;;;6207081;23;20000;-73
2022/05/16 08:51:24;;;;;;;8.68;2.00;;;22.20;67.00;;;;;;6203683;23;20007;-73
2022/05/16 08:54:14;;;;;;;2.72;1.50;;;22.10;64.60;;;;;;6200059;23;20319;-73
2022/05/16 08:56:44;;;;;;;4.63;1.35;;;22.10;67.70;;;;;;6204093;23;20012;-74
2022/05/16 08:59:20;;;;;;;5.30;1.80;;;22.10;67.70;;;;;;6206935;23;20382;-74
2022/05/16 09:01:53;;;;;;;8.65;2.28;;;22.10;65.40;;;;;;6203342;23;20008;-74
2022/05/16 09:04:49;;;;;;;4.53;1.60;;;22.10;65.90;;;;;;6204691;23;19997;-74
2022/05/16 09:07:26;;;;;;;5.18;1.70;;;22.10;68.70;;;;;;6204355;23;20012;-74
2022/05/16 09:10:13;;;;;;;4.30;1.67;;;22.40;67.40;;;;;;6204895;23;19999;-74
2022/05/16 09:13:17;;;;;;;6.90;1.92;;;22.40;67.00;;;;;;6203228;23;20000;-74
2022/05/16 09:16:10;;;;;;;4.35;1.50;;;22.60;70.00;;;;;;6206091;23;20065;-73
2022/05/16 09:19:03;;;;;;;7.03;1.77;;;22.70;66.60;;;;;;6178852;23;20723;-74
2022/05/16 09:21:34;;;;;;;6.00;2.00;;;22.60;65.90;;;;;;6203417;23;20031;-74
2022/05/16 09:24:18;;;;;;;3.38;1.70;;;22.60;65.50;;;;;;6204493;23;20051;-74
2022/05/16 09:27:00;;;;;;;4.90;1.63;;;22.60;64.10;;;;;;6205014;23;20079;-74
2022/05/16 09:29:32;;;;;;;5.65;1.80;;;22.50;63.60;;;;;;6202053;23;20000;-74
2022/05/16 09:32:18;;;;;;;;;;;22.50;64.20;;;;;;6205957;23;20434;-76
2022/05/16 09:34:43;;;;;;;3.88;1.50;;;22.50;62.90;;;;;;6176013;23;19904;-75
2022/05/16 09:37:10;;;;;;;3.28;1.40;;;22.50;64.70;;;;;;6205614;23;20026;-75
2022/05/16 09:39:36;;;;;;;6.30;1.75;;;22.60;64.00;;;;;;6206555;23;20043;-75
2022/05/16 09:42:13;;;;;;;5.43;1.75;;;22.70;62.50;;;;;;6204640;23;20013;-78
2022/05/16 09:44:44;;;;;;;6.07;1.48;;;22.70;62.40;;;;;;6178963;23;20008;-76
2022/05/16 09:47:42;;;;;;;8.63;1.70;;;22.70;61.70;;;;;;6205547;23;20008;-74
2022/05/16 09:50:27;;;;;;;4.80;1.83;;;22.80;59.90;;;;;;6173729;23;20277;-74
2022/05/16 09:52:59;;;;;;;5.07;1.40;;;22.90;59.90;;;;;;6203866;23;20001;-74
2022/05/16 09:55:35;;;;;;;3.95;1.08;;;23.00;59.90;;;;;;6205581;23;20001;-73
2022/05/16 09:58:13;;;;;;;6.60;1.85;;;23.00;60.20;;;;;;6200558;23;20064;-73
2022/05/16 10:00:45;;;;;;;2.92;1.27;;;23.10;59.60;;;;;;6179143;23;20009;-73
2022/05/16 10:03:20;;;;;;;7.03;2.05;;;23.00;59.00;;;;;;6204952;23;20004;-74
2022/05/16 10:05:50;;;;;;;5.50;1.83;;;23.10;58.40;;;;;;6201718;23;20031;-76
2022/05/16 10:08:46;;;;;;;4.93;1.55;;;23.10;58.40;;;;;;6203908;23;20066;-74
2022/05/16 10:11:24;;;;;;;2.38;1.40;;;23.10;58.30;;;;;;6201180;23;20008;-74
2022/05/16 10:13:50;;;;;;;3.60;1.25;;;23.30;62.20;;;;;;6204457;23;20004;-74
2022/05/16 10:16:18;;;;;;;6.10;1.60;;;23.40;60.20;;;;;;6202089;23;20027;-74
2022/05/16 10:18:49;;;;;;;4.60;1.42;;;23.50;60.40;;;;;;6201881;23;20094;-74
2022/05/16 10:21:24;;;;;;;2.92;1.38;;;23.70;58.80;;;;;;6201753;23;20004;-74
2022/05/16 10:23:51;;;;;;;5.78;1.60;;;23.70;59.30;;;;;;6156558;23;20778;-73
2022/05/16 10:26:21;;;;;;;3.20;1.40;;;23.80;59.40;;;;;;6170908;23;20511;-73
2022/05/16 10:28:51;;;;;;;3.40;1.35;;;23.90;59.70;;;;;;6168872;23;20024;-72
2022/05/16 10:34:19;;;;;;;3.05;1.25;;;24.10;57.10;;;;;;6173316;23;20095;-73
2022/05/16 10:36:50;;;;;;;3.17;1.42;;;24.10;56.80;;;;;;6170112;23;20012;-73
2022/05/16 10:39:19;;;;;;;4.63;1.50;;;24.10;57.10;;;;;;6173175;23;20005;-74
2022/05/16 10:41:59;;;;;;;6.65;1.50;;;24.20;57.80;;;;;;6171148;23;20008;-75
2022/05/16 10:44:53;;;;;;;5.63;1.45;;;24.20;56.80;;;;;;6173411;23;20028;-75
2022/05/16 10:47:45;;;;;;;5.18;1.48;;;24.20;58.40;;;;;;6173679;23;20015;-75
2022/05/16 10:50:23;;;;;;;3.35;1.45;;;24.30;59.70;;;;;;6175164;23;20047;-75
2022/05/16 10:52:58;;;;;;;3.55;1.50;;;24.40;58.80;;;;;;6175119;23;20095;-76
2022/05/16 10:55:28;;;;;;;4.25;1.48;;;24.40;59.10;;;;;;6175236;23;20011;-74
2022/05/16 10:58:02;;;;;;;7.18;1.55;;;24.40;59.50;;;;;;6173143;23;20009;-74
2022/05/16 11:00:44;;;;;;;4.35;1.48;;;24.40;58.10;;;;;;6171638;23;20084;-76
2022/05/16 11:03:28;;;;;;;1.88;1.30;;;24.50;58.00;;;;;;6174616;23;20013;-74
2022/05/16 11:06:00;;;;;;;3.58;1.35;;;24.50;59.70;;;;;;6172753;23;20334;-74
2022/05/16 11:08:39;;;;;;;5.55;1.30;;;24.60;55.90;;;;;;6148643;23;20016;-76
2022/05/16 11:11:27;;;;;;;2.20;1.52;;;24.50;57.90;;;;;;6171160;23;20433;-73
2022/05/16 11:14:11;;;;;;;2.33;1.27;;;24.50;59.40;;;;;;6172080;23;20007;-72
2022/05/16 11:16:39;;;;;;;3.72;1.30;;;24.50;58.30;;;;;;6171251;23;20020;-72
2022/05/16 11:19:05;;;;;;;3.63;1.63;;;24.40;57.60;;;;;;6169680;23;20033;-73
2022/05/16 11:21:54;;;;;;;4.32;1.60;;;24.40;62.20;;;;;;6174648;23;20112;-72
2022/05/16 11:25:00;;;;;;;11.70;1.80;;;24.50;62.50;;;;;;6193369;23;20607;-73
2022/05/16 11:27:41;;;;;;;4.22;1.48;;;24.70;59.90;;;;;;6180111;23;20060;-73
2022/05/16 11:30:18;;;;;;;7.22;1.20;;;24.80;58.60;;;;;;6202573;23;20011;-72
2022/05/16 11:32:49;;;;;;;2.00;1.42;;;24.90;58.10;;;;;;6204858;23;20004;-72
2022/05/16 11:35:19;;;;;;;2.90;1.27;;;24.90;58.70;;;;;;6203666;23;20418;-72
2022/05/16 11:38:04;;;;;;;3.97;1.48;;;25.10;57.10;;;;;;6202979;23;20103;-72
2022/05/16 11:40:41;;;;;;;4.15;1.45;;;25.10;56.60;;;;;;6202918;23;20005;-72
2022/05/16 11:43:14;;;;;;;3.88;1.60;;;25.00;56.40;;;;;;6201235;23;20012;-72
2022/05/16 11:46:12;;;;;;;6.15;1.50;;;24.90;55.50;;;;;;6203522;23;20019;-72
2022/05/16 11:48:49;;;;;;;3.85;1.45;;;24.90;59.20;;;;;;6202889;23;20307;-73
2022/05/16 11:51:52;;;;;;;3.10;1.50;;;25.00;57.30;;;;;;6205874;23;20689;-73
2022/05/16 11:54:23;;;;;;;2.55;1.30;;;25.20;57.40;;;;;;6204899;23;20030;-73
2022/05/16 12:02:29;;;;;;;6.00;1.50;;;25.20;56.70;;;;;;6200320;23;20023;-74
2022/05/16 12:05:09;;;;;;;1.40;1.17;;;25.20;56.90;;;;;;6205024;23;20012;-73
2022/05/16 12:07:34;;;;;;;3.55;1.98;;;25.30;58.20;;;;;;6204160;23;20032;-74
2022/05/16 12:10:07;;;;;;;5.03;1.90;;;25.40;56.40;;;;;;6201243;23;20389;-73
2022/05/16 12:12:41;;;;;;;4.35;1.85;;;25.40;57.30;;;;;;6198194;23;20008;-73
2022/05/16 12:15:16;;;;;;;5.13;1.50;;;25.40;56.60;;;;;;6201950;23;20148;-74
2022/05/16 12:18:01;;;;;;;3.30;1.85;;;25.40;58.40;;;;;;6202475;23;20021;-73
2022/05/16 12:20:44;;;;;;;6.22;1.48;;;25.50;56.90;;;;;;6203519;23;20541;-75
2022/05/16 12:23:13;;;;;;;5.72;1.63;;;25.50;58.30;;;;;;6202943;23;20024;-73
2022/05/16 12:25:40;;;;;;;3.88;1.75;;;25.50;56.40;;;;;;6198760;23;20176;-72
2022/05/16 12:28:16;;;;;;;2.83;1.23;;;25.60;56.80;;;;;;6204400;23;20062;-72
2022/05/16 12:30:53;;;;;;;4.38;1.60;;;25.70;55.10;;;;;;6203670;23;20266;-72
2022/05/16 12:33:42;;;;;;;3.83;1.50;;;25.80;55.60;;;;;;6206325;23;19997;-73
2022/05/16 12:36:15;;;;;;;2.97;1.60;;;25.90;58.80;;;;;;6202015;23;20114;-72
2022/05/16 12:38:42;;;;;;;1.42;1.25;;;26.00;56.60;;;;;;6207082;23;20366;-72
2022/05/16 12:41:47;;;;;;;4.03;1.40;;;26.10;58.90;;;;;;6205868;23;20084;-72
2022/05/16 12:44:38;;;;;;;3.15;1.35;;;26.20;55.80;;;;;;6205992;23;20031;-73
2022/05/16 12:47:09;;;;;;;3.40;1.63;;;26.30;55.90;;;;;;6206449;23;20079;-72
2022/05/16 12:49:54;;;;;;;3.97;1.40;;;26.30;53.10;;;;;;6203048;23;20000;-71
2022/05/16 12:52:57;;;;;;;5.97;1.95;;;26.10;52.80;;;;;;6206354;23;20008;-73
2022/05/16 12:55:26;;;;;;;3.95;1.60;;;26.10;54.00;;;;;;6134913;23;20019;-72
2022/05/16 12:58:01;;;;;;;2.22;1.42;;;26.10;54.50;;;;;;6205694;23;20476;-74
2022/05/16 13:00:52;;;;;;;2.83;1.40;;;26.00;53.90;;;;;;6203178;23;20410;-74
2022/05/16 13:03:44;;;;;;;6.50;1.80;;;26.10;55.30;;;;;;6205742;23;20434;-75
2022/05/16 13:06:45;;;;;;;;;;;26.00;53.60;;;;;;6204984;23;20012;-77
2022/05/16 13:09:11;;;;;;;2.95;1.48;;;26.00;53.90;;;;;;6084499;23;19942;-76
2022/05/16 13:12:04;;;;;;;3.83;1.65;;;26.00;53.60;;;;;;6179936;23;20016;-77
2022/05/16 13:14:43;;;;;;;4.18;1.60;;;25.90;53.70;;;;;;6207045;23;20055;-76
2022/05/16 13:17:16;;;;;;;3.72;1.40;;;26.10;54.50;;;;;;6204474;23;20013;-76
2022/05/16 13:19:44;;;;;;;4.63;1.60;;;26.20;55.20;;;;;;6206907;23;20004;-77
2022/05/16 13:22:17;;;;;;;3.78;1.65;;;26.20;54.80;;;;;;6203942;23;20012;-81
2022/05/16 13:24:43;;;;;;;3.08;1.58;;;26.30;57.00;;;;;;6207280;23;20047;-77
2022/05/16 13:30:05;;;;;;;2.78;1.55;;;26.10;54.70;;;;;;6208764;23;20089;-77
2022/05/16 13:32:31;;;;;;;10.57;1.50;;;26.10;54.80;;;;;;6205032;23;20501;-76
2022/05/16 13:35:03;;;;;;;13.88;2.00;;;26.10;54.30;;;;;;6208405;23;20349;-74
2022/05/16 13:37:39;;;;;;;7.03;1.95;;;26.10;55.70;;;;;;6203114;23;20829;-73
2022/05/16 13:40:08;;;;;;;4.05;1.27;;;26.10;53.00;;;;;;6203665;23;20001;-75
2022/05/16 13:42:36;;;;;;;3.22;1.58;;;26.00;55.30;;;;;;6171359;23;20079;-74
2022/05/16 13:45:05;;;;;;;3.58;1.67;;;25.90;53.60;;;;;;6204066;23;20005;-74
2022/05/16 13:47:32;;;;;;;2.53;1.55;;;25.90;54.10;;;;;;6200574;23;20031;-74
2022/05/16 13:49:58;;;;;;;3.30;1.50;;;26.10;54.50;;;;;;6200717;23;20009;-73